Etusivu
METAR-TAF:

METAR-TAF

Lentoasemat :

Municipal_Airport

Cherokee, Iowa, Yhdysvallat

Leveyspiiri: 42-43-54N, Pituuspiiri: 095-33-21W, korkeus merenpinnasta: 374 m

Tämänhetkinen sää

Tämä raportti tehtiin 15 minuuttia sitten, kello 15.35 UTC
Tuuli 8 kn pohjoisesta/koillisesta puuskistuen 17 kn:hen
Lämpötila -4°C
Kosteus 80%
Ilmanpaine 1027 hPa
Näkyvyys: 16.1 km
Hajanaisia pilviä 1500 ft:n korkeudessa

METAR: KCKP 011535Z AUTO 03008G17KT 10SM SCT015 M04/M07 A3033 RMK AO2 T10391067

Aika: 09:50 (15:50 UTC)


TAF: puuttuu

Säähavainnot ja -ennusteet yli 4000 lentoasemalta (METAR- ja TAF-raportit).

Käytössä olevat sääasemat on merkitty karttaan keltaisilla ja punaisilla pisteillä.

Aseta hiiri pisteen päälle nähdäksesi sääaseman nimen.

Klikkaa sitten nähdäksesi säähavainnot ja -ennusteet.

Kartan vaihtaminen: klikkaa mustalla rastilla varustettuja vihreitä pisteitä, niin voit zoomata sisään; viivalla varustettua vihreää pistettä, niin voit zoomata ulos tai vihreitä nuolia, niin pääset viereisille kartoille.


METAR-TAF: